Time;durP1;ratioP1;P1;durP2;ratioP2;P2;SDS_P1;SDS_P2;PMS_P1;PMS_P2;Temp;Humidity;BMP_temperature;BMP_pressure;BME280_temperature;BME280_humidity;BME280_pressure;Samples;Min_cycle;Max_cycle;Signal;HPM_P1;HPM_P2
2021/04/03 00:00:16;;;;;;;16.63;9.10;;;11.30;56.70;;;;;;5037017;28;20051;-78
2021/04/03 00:02:43;;;;;;;18.42;9.45;;;11.30;56.70;;;;;;5037199;28;20048;-78
2021/04/03 00:05:10;;;;;;;19.52;9.48;;;11.20;56.90;;;;;;5037070;28;20095;-77
2021/04/03 00:07:37;;;;;;;15.30;8.57;;;11.30;57.10;;;;;;5037079;28;20032;-78
2021/04/03 00:10:10;;;;;;;14.30;8.68;;;11.30;57.00;;;;;;5036658;28;20052;-78
2021/04/03 00:12:36;;;;;;;19.23;8.88;;;11.20;56.90;;;;;;5037037;28;20037;-78
2021/04/03 00:15:04;;;;;;;16.08;9.07;;;11.20;57.00;;;;;;5037325;28;20040;-78
2021/04/03 00:17:30;;;;;;;14.80;8.98;;;11.20;57.10;;;;;;5037935;28;20037;-79
2021/04/03 00:19:56;;;;;;;16.98;9.10;;;11.10;57.20;;;;;;5036997;28;20064;-79
2021/04/03 00:22:23;;;;;;;18.45;9.90;;;11.20;57.20;;;;;;5037927;28;20470;-79
2021/04/03 00:24:49;;;;;;;14.85;9.05;;;11.10;57.10;;;;;;5036780;28;20037;-79
2021/04/03 00:27:16;;;;;;;13.45;8.93;;;11.00;57.50;;;;;;5036995;28;20033;-78
2021/04/03 00:29:42;;;;;;;14.10;9.18;;;11.00;57.50;;;;;;5036853;28;20037;-78
2021/04/03 00:32:08;;;;;;;15.82;9.52;;;11.10;57.30;;;;;;5036861;28;20074;-79
2021/04/03 00:34:34;;;;;;;15.68;9.07;;;11.00;57.80;;;;;;5036967;28;20120;-78
2021/04/03 00:37:00;;;;;;;20.48;10.82;;;11.00;57.70;;;;;;5037409;28;20124;-78
2021/04/03 00:39:26;;;;;;;14.70;9.48;;;11.00;57.60;;;;;;5054428;28;20461;-78
2021/04/03 00:41:52;;;;;;;14.68;9.70;;;11.00;57.60;;;;;;5036919;28;20056;-78
2021/04/03 00:44:18;;;;;;;16.48;9.55;;;10.90;57.80;;;;;;5036804;28;20029;-78
2021/04/03 00:46:44;;;;;;;19.02;9.55;;;10.90;58.00;;;;;;5036687;28;20511;-78
2021/04/03 00:49:10;;;;;;;16.42;9.75;;;10.90;58.10;;;;;;5037019;28;20111;-78
2021/04/03 00:51:36;;;;;;;16.08;9.70;;;10.80;58.10;;;;;;5036617;28;20132;-78
2021/04/03 00:54:03;;;;;;;14.40;9.82;;;10.80;58.10;;;;;;5036718;28;20037;-78
2021/04/03 00:56:29;;;;;;;15.32;10.55;;;10.80;58.30;;;;;;5036373;28;20086;-78
2021/04/03 00:58:55;;;;;;;17.17;10.32;;;10.70;58.30;;;;;;5036881;28;20041;-78
2021/04/03 01:01:21;;;;;;;16.40;10.30;;;10.60;58.30;;;;;;5036300;28;20033;-78
2021/04/03 01:03:48;;;;;;;16.90;10.85;;;10.60;58.30;;;;;;5036333;28;20040;-78
2021/04/03 01:06:14;;;;;;;17.45;10.98;;;10.60;58.40;;;;;;5039876;28;20067;-78
2021/04/03 01:08:40;;;;;;;15.20;11.10;;;10.60;58.30;;;;;;5040470;28;20048;-78
2021/04/03 01:11:07;;;;;;;19.25;11.88;;;10.60;58.30;;;;;;5040196;28;20045;-78
2021/04/03 01:13:44;;;;;;;18.27;11.73;;;10.60;58.20;;;;;;5040654;28;20044;-78
2021/04/03 01:16:27;;;;;;;18.85;12.43;;;10.50;58.20;;;;;;5040323;28;20106;-78
2021/04/03 01:19:14;;;;;;;18.40;13.27;;;10.50;58.30;;;;;;5041200;28;20036;-78
2021/04/03 01:22:14;;;;;;;19.88;13.68;;;10.40;58.40;;;;;;5040380;28;20508;-78
2021/04/03 01:25:01;;;;;;;23.63;13.93;;;10.30;58.60;;;;;;5039959;28;20037;-78
2021/04/03 01:27:28;;;;;;;21.75;14.00;;;10.30;58.80;;;;;;5058406;28;20076;-78
2021/04/03 01:30:05;;;;;;;22.58;15.07;;;10.30;59.00;;;;;;5040551;28;20033;-78
2021/04/03 01:32:56;;;;;;;21.55;14.90;;;10.30;59.20;;;;;;5040608;28;20068;-78
2021/04/03 01:35:29;;;;;;;21.92;15.73;;;10.30;59.40;;;;;;5039769;28;20032;-78
2021/04/03 01:38:00;;;;;;;24.20;16.08;;;10.20;59.80;;;;;;5040748;28;20071;-79
2021/04/03 01:40:27;;;;;;;27.23;18.17;;;10.10;59.90;;;;;;5039431;28;20128;-78
2021/04/03 01:43:02;;;;;;;24.80;17.73;;;10.10;60.20;;;;;;5040367;28;20043;-77
2021/04/03 01:45:29;;;;;;;29.80;18.77;;;10.10;60.60;;;;;;5040166;28;20041;-77
2021/04/03 01:47:56;;;;;;;29.75;19.67;;;10.00;61.00;;;;;;5039978;28;20033;-76
2021/04/03 01:50:23;;;;;;;31.45;20.25;;;10.00;61.20;;;;;;5040249;28;20040;-76
2021/04/03 01:52:50;;;;;;;28.25;19.25;;;9.90;61.60;;;;;;5057929;28;20047;-77
2021/04/03 01:55:17;;;;;;;31.38;20.55;;;9.90;61.80;;;;;;5039993;28;20044;-77
2021/04/03 01:57:49;;;;;;;28.70;19.52;;;9.80;62.10;;;;;;5040650;28;20033;-77
2021/04/03 02:00:20;;;;;;;30.80;20.60;;;9.70;62.50;;;;;;5039574;28;20175;-77
2021/04/03 02:02:47;;;;;;;33.35;20.58;;;9.70;62.70;;;;;;5039996;28;20528;-77
2021/04/03 02:05:14;;;;;;;28.48;19.95;;;9.80;62.80;;;;;;5057504;28;20044;-76
2021/04/03 02:07:43;;;;;;;29.85;20.25;;;9.70;63.40;;;;;;5057563;28;20033;-76
2021/04/03 02:10:12;;;;;;;31.52;21.02;;;9.50;64.20;;;;;;5035823;28;20049;-77
2021/04/03 02:12:39;;;;;;;28.08;20.40;;;9.40;64.60;;;;;;5037011;28;20044;-76
2021/04/03 02:15:10;;;;;;;30.80;20.67;;;9.40;64.90;;;;;;5035860;28;20064;-77
2021/04/03 02:17:37;;;;;;;34.83;22.30;;;9.30;65.40;;;;;;5036432;28;20490;-77
2021/04/03 02:20:08;;;;;;;32.13;21.65;;;9.20;65.80;;;;;;5035886;28;20083;-77
2021/04/03 02:22:35;;;;;;;33.83;23.33;;;9.20;66.00;;;;;;5035887;28;20069;-77
2021/04/03 02:25:05;;;;;;;33.47;22.63;;;9.10;66.40;;;;;;5035541;28;20479;-76
2021/04/03 02:27:32;;;;;;;32.90;21.42;;;9.10;66.50;;;;;;5036834;28;20037;-76
2021/04/03 02:30:11;;;;;;;33.35;21.45;;;9.10;66.70;;;;;;5035413;28;20030;-77
2021/04/03 02:32:38;;;;;;;37.47;22.63;;;9.10;66.70;;;;;;5035426;28;20037;-76
2021/04/03 02:35:04;;;;;;;32.38;22.05;;;9.00;67.40;;;;;;5035592;28;20041;-76
2021/04/03 02:37:30;;;;;;;32.60;22.30;;;9.00;67.80;;;;;;5036538;28;20153;-76
2021/04/03 02:39:56;;;;;;;31.83;21.20;;;8.90;68.10;;;;;;5035083;28;20505;-76
2021/04/03 02:42:24;;;;;;;31.63;21.63;;;8.90;68.30;;;;;;5035143;28;20037;-76
2021/04/03 02:45:03;;;;;;;30.70;20.42;;;8.90;68.30;;;;;;5035296;28;20033;-76
2021/04/03 02:47:49;;;;;;;36.55;21.40;;;8.80;68.30;;;;;;5035113;28;20124;-76
2021/04/03 02:50:26;;;;;;;34.50;20.83;;;8.70;68.60;;;;;;5034678;28;20065;-77
2021/04/03 02:52:55;;;;;;;44.35;20.67;;;8.60;69.20;;;;;;5035579;28;20060;-76
2021/04/03 02:55:25;;;;;;;32.25;20.73;;;8.60;69.30;;;;;;5036262;28;20037;-76
2021/04/03 02:57:52;;;;;;;37.08;21.38;;;8.60;69.50;;;;;;5034922;28;20135;-77
2021/04/03 03:00:20;;;;;;;32.95;20.83;;;8.50;69.50;;;;;;5034825;28;20041;-77
2021/04/03 03:02:49;;;;;;;33.95;19.92;;;8.50;69.60;;;;;;5035038;28;20033;-77
2021/04/03 03:05:17;;;;;;;33.80;19.80;;;8.50;69.90;;;;;;5034853;28;20485;-77
2021/04/03 03:07:47;;;;;;;32.75;20.17;;;8.40;70.20;;;;;;5034929;28;20128;-77
2021/04/03 03:10:15;;;;;;;31.85;19.27;;;8.30;70.30;;;;;;5044594;28;20044;-77
2021/04/03 03:12:43;;;;;;;32.78;19.50;;;8.30;70.30;;;;;;5038474;28;20067;-77
2021/04/03 03:15:10;;;;;;;31.15;20.02;;;8.30;70.30;;;;;;5038804;28;20036;-77
2021/04/03 03:17:37;;;;;;;32.28;19.20;;;8.30;70.20;;;;;;5038307;28;20067;-77
2021/04/03 03:20:10;;;;;;;33.80;19.17;;;8.20;70.00;;;;;;5056800;28;20036;-76
2021/04/03 03:22:39;;;;;;;34.10;20.77;;;8.20;69.80;;;;;;5038037;28;20041;-77
2021/04/03 03:25:06;;;;;;;30.35;19.55;;;8.10;69.80;;;;;;5021953;28;20087;-77
2021/04/03 03:27:39;;;;;;;29.88;18.58;;;8.10;70.10;;;;;;5037377;28;20037;-76
2021/04/03 03:30:07;;;;;;;38.13;20.92;;;8.00;70.40;;;;;;5038669;28;20037;-76
2021/04/03 03:32:33;;;;;;;32.20;20.20;;;7.90;70.80;;;;;;5055718;28;20137;-76
2021/04/03 03:34:59;;;;;;;31.52;18.88;;;8.00;71.10;;;;;;5055975;28;20082;-77
2021/04/03 03:37:26;;;;;;;32.70;19.20;;;7.90;71.30;;;;;;5055488;28;20099;-76
2021/04/03 03:39:53;;;;;;;31.58;19.50;;;7.90;71.30;;;;;;5055759;28;20033;-76
2021/04/03 03:42:19;;;;;;;30.15;19.20;;;7.80;71.40;;;;;;5055794;28;20131;-76
2021/04/03 03:44:46;;;;;;;31.92;18.88;;;7.80;71.50;;;;;;5037634;28;20032;-76
2021/04/03 03:47:12;;;;;;;36.30;19.90;;;7.70;71.20;;;;;;5038558;28;20129;-76
2021/04/03 03:49:38;;;;;;;31.15;18.85;;;7.60;71.60;;;;;;5038311;28;20064;-76
2021/04/03 03:52:05;;;;;;;33.92;20.05;;;7.60;71.60;;;;;;5037638;28;20102;-77
2021/04/03 03:54:31;;;;;;;31.25;18.83;;;7.60;71.70;;;;;;5037333;28;20041;-77
2021/04/03 03:56:57;;;;;;;36.88;19.75;;;7.50;72.20;;;;;;5037595;28;20040;-76
2021/04/03 03:59:22;;;;;;;36.72;18.83;;;7.50;72.10;;;;;;5038169;28;20078;-76
2021/04/03 04:01:48;;;;;;;39.58;20.00;;;7.40;72.50;;;;;;5037453;28;20033;-76
2021/04/03 04:04:14;;;;;;;33.22;19.25;;;7.30;72.50;;;;;;5037161;28;20044;-76
2021/04/03 04:06:40;;;;;;;35.17;20.08;;;7.40;72.60;;;;;;5037359;28;20044;-76
2021/04/03 04:09:07;;;;;;;35.03;20.67;;;7.40;72.10;;;;;;5036899;28;20500;-76
2021/04/03 04:11:33;;;;;;;35.50;20.27;;;7.40;72.10;;;;;;5037158;28;20555;-76
2021/04/03 04:13:59;;;;;;;31.63;19.75;;;7.30;72.20;;;;;;5037367;28;20029;-76
2021/04/03 04:16:25;;;;;;;37.22;20.13;;;7.20;72.30;;;;;;5037200;28;20486;-76
2021/04/03 04:18:51;;;;;;;34.65;19.42;;;7.20;72.30;;;;;;5036902;28;20037;-76
2021/04/03 04:21:17;;;;;;;33.78;20.85;;;7.20;72.30;;;;;;5037241;28;20079;-76
2021/04/03 04:23:44;;;;;;;32.55;19.65;;;7.20;72.20;;;;;;5037128;28;20119;-76
2021/04/03 04:26:10;;;;;;;33.67;21.02;;;7.20;71.90;;;;;;5036847;28;20163;-76
2021/04/03 04:28:36;;;;;;;30.48;19.27;;;7.30;71.70;;;;;;5036961;28;20056;-76
2021/04/03 04:31:03;;;;;;;40.10;20.80;;;7.20;71.70;;;;;;5036904;28;20039;-76
2021/04/03 04:33:29;;;;;;;34.80;20.38;;;7.20;72.00;;;;;;5054902;28;20032;-76
2021/04/03 04:35:56;;;;;;;38.58;21.08;;;7.10;72.10;;;;;;5054985;28;20049;-76
2021/04/03 04:38:22;;;;;;;36.10;22.70;;;7.10;72.30;;;;;;5036756;28;20040;-76
2021/04/03 04:40:48;;;;;;;36.75;20.90;;;7.10;72.00;;;;;;5035987;28;20041;-76
2021/04/03 04:43:14;;;;;;;37.55;21.20;;;7.10;72.50;;;;;;5036796;28;20044;-77
2021/04/03 04:45:43;;;;;;;32.47;21.58;;;7.00;72.60;;;;;;5036745;28;20037;-77
2021/04/03 04:48:08;;;;;;;36.20;21.63;;;6.90;72.60;;;;;;5036741;28;20087;-76
2021/04/03 04:50:34;;;;;;;31.35;20.80;;;6.90;72.70;;;;;;5036554;28;20033;-76
2021/04/03 04:53:01;;;;;;;44.58;22.73;;;7.00;72.40;;;;;;5036615;28;20029;-76
2021/04/03 04:55:27;;;;;;;36.60;21.65;;;6.90;72.70;;;;;;5036507;28;20059;-76
2021/04/03 04:57:53;;;;;;;33.22;21.38;;;6.90;72.40;;;;;;5036633;28;20393;-76
2021/04/03 05:00:20;;;;;;;39.67;21.88;;;7.00;72.30;;;;;;5055142;28;20037;-76
2021/04/03 05:02:46;;;;;;;39.40;22.00;;;6.90;72.20;;;;;;5036857;28;20159;-76
2021/04/03 05:05:13;;;;;;;34.38;21.13;;;6.90;72.40;;;;;;5054595;28;20045;-76
2021/04/03 05:07:38;;;;;;;41.05;22.00;;;6.90;72.40;;;;;;5036624;28;20025;-76
2021/04/03 05:10:05;;;;;;;41.45;23.08;;;6.80;72.50;;;;;;5054316;28;20144;-76
2021/04/03 05:12:31;;;;;;;40.70;23.92;;;6.80;73.00;;;;;;5036306;28;20040;-76
2021/04/03 05:14:56;;;;;;;37.15;23.02;;;6.70;73.40;;;;;;5036219;28;20091;-76
2021/04/03 05:17:22;;;;;;;46.90;23.30;;;6.70;73.50;;;;;;5035976;28;20037;-76
2021/04/03 05:19:49;;;;;;;41.63;23.08;;;6.70;73.30;;;;;;5036380;28;20071;-77
2021/04/03 05:22:15;;;;;;;37.45;24.65;;;6.60;73.50;;;;;;5036064;28;20570;-76
2021/04/03 05:24:40;;;;;;;40.10;24.58;;;6.50;74.10;;;;;;5035843;28;20054;-76
2021/04/03 05:27:07;;;;;;;43.55;25.02;;;6.50;74.20;;;;;;5036544;28;20075;-76
2021/04/03 05:29:33;;;;;;;38.83;23.70;;;6.50;74.30;;;;;;5035635;28;20045;-76
2021/04/03 05:31:58;;;;;;;39.10;24.33;;;6.50;74.30;;;;;;5054539;28;20028;-76
2021/04/03 05:34:24;;;;;;;59.00;26.40;;;6.50;74.20;;;;;;5036064;28;20043;-76
2021/04/03 05:36:50;;;;;;;40.97;25.73;;;6.50;74.60;;;;;;5036299;28;20033;-76
2021/04/03 05:39:16;;;;;;;42.63;24.73;;;6.50;74.50;;;;;;5036234;28;20151;-76
2021/04/03 05:41:42;;;;;;;41.75;25.45;;;6.40;74.40;;;;;;5035922;28;20509;-76
2021/04/03 05:44:10;;;;;;;45.78;25.55;;;6.40;74.70;;;;;;5035884;28;20075;-76
2021/04/03 05:46:41;;;;;;;43.75;26.38;;;6.40;74.50;;;;;;5035918;28;20040;-76
2021/04/03 05:49:08;;;;;;;38.97;25.63;;;6.50;74.40;;;;;;5053701;28;20037;-77
2021/04/03 05:51:34;;;;;;;42.92;26.35;;;6.40;74.50;;;;;;5038145;28;20033;-77
2021/04/03 05:54:02;;;;;;;40.75;26.92;;;6.30;74.80;;;;;;5039445;28;20044;-76
2021/04/03 05:56:29;;;;;;;42.72;26.77;;;6.20;75.00;;;;;;5039875;28;20037;-76
2021/04/03 05:58:55;;;;;;;47.58;29.10;;;6.30;74.90;;;;;;5039466;28;20045;-77
2021/04/03 06:01:22;;;;;;;40.08;25.73;;;6.20;75.10;;;;;;5039445;28;20437;-76
2021/04/03 06:03:48;;;;;;;43.22;26.90;;;6.20;75.20;;;;;;5039523;28;20037;-75
2021/04/03 06:06:14;;;;;;;44.85;25.60;;;6.20;75.20;;;;;;5039095;28;20075;-76
2021/04/03 06:08:40;;;;;;;45.08;26.73;;;6.30;74.80;;;;;;5056965;28;20033;-76
2021/04/03 06:11:17;;;;;;;41.45;26.48;;;6.20;74.90;;;;;;5038795;28;20056;-76
2021/04/03 06:14:01;;;;;;;46.20;26.83;;;6.20;74.70;;;;;;5039208;28;20037;-76
2021/04/03 06:16:28;;;;;;;33.40;20.15;;;6.20;74.80;;;;;;5039357;28;20089;-76
2021/04/03 06:19:13;;;;;;;38.90;25.50;;;6.20;74.80;;;;;;5039944;28;20507;-76
2021/04/03 06:21:41;;;;;;;44.97;26.42;;;6.30;74.80;;;;;;5039342;28;20090;-76
2021/04/03 06:24:20;;;;;;;43.00;26.38;;;6.20;74.60;;;;;;5039750;28;20562;-76
2021/04/03 06:27:09;;;;;;;55.25;26.67;;;6.20;74.60;;;;;;5057276;28;20167;-77
2021/04/03 06:29:37;;;;;;;169.02;34.83;;;6.40;74.20;;;;;;5039414;28;20068;-77
2021/04/03 06:32:04;;;;;;;48.05;27.45;;;6.50;73.90;;;;;;5039355;28;20454;-77
2021/04/03 06:34:39;;;;;;;41.15;24.92;;;6.50;73.20;;;;;;5038724;28;20055;-77
2021/04/03 06:37:09;;;;;;;41.33;26.27;;;6.50;73.20;;;;;;5040275;28;20175;-77
2021/04/03 06:39:51;;;;;;;44.90;25.70;;;6.50;72.90;;;;;;5038843;28;20033;-76
2021/04/03 06:42:55;;;;;;;43.13;25.88;;;6.50;72.70;;;;;;5039210;28;20041;-76
2021/04/03 06:45:21;;;;;;;35.88;23.88;;;6.60;72.30;;;;;;5038824;28;20041;-77
2021/04/03 06:47:49;;;;;;;38.55;24.95;;;6.70;72.20;;;;;;5038991;28;20367;-77
2021/04/03 06:50:16;;;;;;;41.58;25.85;;;6.80;71.70;;;;;;5039393;28;20156;-79
2021/04/03 06:52:42;;;;;;;41.97;26.63;;;6.80;71.30;;;;;;5039198;28;20037;-78
2021/04/03 06:55:14;;;;;;;36.45;24.65;;;6.70;71.80;;;;;;5039247;28;20128;-81
2021/04/03 06:57:45;;;;;;;36.33;24.52;;;6.80;71.50;;;;;;5039072;28;20043;-77
2021/04/03 07:00:12;;;;;;;38.13;24.85;;;6.80;71.20;;;;;;5039303;28;20068;-77
2021/04/03 07:02:59;;;;;;;41.08;24.77;;;6.90;70.80;;;;;;5037874;28;20049;-79
2021/04/03 07:05:36;;;;;;;39.20;25.20;;;6.90;70.70;;;;;;5038471;28;20047;-79
2021/04/03 07:08:05;;;;;;;38.60;25.00;;;6.80;70.80;;;;;;5056799;28;20035;-78
2021/04/03 07:10:32;;;;;;;38.42;25.10;;;7.00;70.50;;;;;;5037977;28;20055;-79
2021/04/03 07:12:59;;;;;;;39.42;24.60;;;7.10;70.20;;;;;;5055689;28;20058;-78
2021/04/03 07:15:26;;;;;;;39.38;25.17;;;7.10;70.10;;;;;;5038120;28;20438;-77
2021/04/03 07:17:53;;;;;;;34.97;23.17;;;7.10;70.30;;;;;;5038587;28;20077;-75
2021/04/03 07:20:21;;;;;;;39.90;23.45;;;7.20;69.50;;;;;;5038314;28;20124;-76
2021/04/03 07:22:56;;;;;;;30.83;22.50;;;7.20;69.30;;;;;;5038427;28;20162;-76
2021/04/03 07:25:25;;;;;;;;;;;7.40;68.70;;;;;;5037957;28;20043;-77
2021/04/03 07:27:50;;;;;;;36.13;22.35;;;7.40;68.50;;;;;;5038203;28;19909;-78
2021/04/03 07:30:35;;;;;;;34.55;21.52;;;7.30;68.00;;;;;;5037769;28;20132;-79
2021/04/03 07:33:21;;;;;;;32.50;20.73;;;7.40;67.90;;;;;;5038714;28;20029;-78
2021/04/03 07:36:05;;;;;;;31.25;20.70;;;7.40;67.70;;;;;;5037923;28;20047;-77
2021/04/03 07:38:40;;;;;;;31.10;20.27;;;7.50;67.10;;;;;;5038403;28;20116;-79
2021/04/03 07:41:12;;;;;;;30.67;19.85;;;7.50;67.20;;;;;;5037201;28;20040;-79
2021/04/03 07:43:46;;;;;;;27.85;19.58;;;7.60;66.70;;;;;;5053986;28;20370;-79
2021/04/03 07:46:21;;;;;;;29.58;19.20;;;7.80;66.00;;;;;;5037103;28;20044;-77
2021/04/03 07:48:48;;;;;;;34.67;19.15;;;7.90;65.60;;;;;;5036896;28;20037;-79
2021/04/03 07:51:39;;;;;;;26.70;18.73;;;7.90;65.60;;;;;;5038024;28;20470;-80
2021/04/03 07:54:11;;;;;;;26.10;19.63;;;7.90;65.10;;;;;;5037725;28;20041;-78
2021/04/03 07:56:52;;;;;;;34.97;19.88;;;8.00;64.70;;;;;;5036867;28;20123;-77
2021/04/03 07:59:38;;;;;;;33.28;20.00;;;8.00;64.60;;;;;;5036916;28;20042;-77
2021/04/03 08:02:04;;;;;;;29.98;19.05;;;7.90;64.80;;;;;;5037161;28;20515;-76
2021/04/03 08:04:30;;;;;;;30.15;18.17;;;8.10;64.20;;;;;;5055098;28;20041;-77
2021/04/03 08:07:01;;;;;;;25.65;19.35;;;8.10;63.90;;;;;;5037669;28;20474;-68
2021/04/03 08:09:31;;;;;;;34.35;18.77;;;8.10;64.00;;;;;;5036382;28;20465;-67
2021/04/03 08:11:58;;;;;;;31.88;19.00;;;8.20;64.00;;;;;;5037374;28;20040;-68
2021/04/03 08:14:27;;;;;;;30.00;19.05;;;8.00;64.00;;;;;;5026549;23;20065;-68
2021/04/03 08:16:54;;;;;;;24.75;18.10;;;8.10;64.00;;;;;;5017398;28;20068;-66
2021/04/03 08:21:48;;;;;;;30.85;18.23;;;8.60;62.00;;;;;;5081559;22;20049;-67
2021/04/03 08:24:16;;;;;;;31.52;18.85;;;8.60;62.00;;;;;;5074929;28;20366;-73
2021/04/03 08:26:43;;;;;;;32.25;18.77;;;8.50;62.70;;;;;;5056562;28;20037;-65
2021/04/03 08:29:19;;;;;;;33.88;19.05;;;8.60;61.90;;;;;;5056607;28;20393;-67
2021/04/03 08:31:48;;;;;;;27.20;17.77;;;8.60;61.70;;;;;;5074545;28;20166;-69
2021/04/03 08:34:14;;;;;;;29.92;17.83;;;8.60;61.90;;;;;;5056813;28;20035;-71
2021/04/03 08:36:40;;;;;;;27.83;18.08;;;8.80;61.40;;;;;;5075046;28;20086;-67
2021/04/03 08:39:08;;;;;;;26.35;18.52;;;8.90;61.10;;;;;;5062477;22;20144;-69
2021/04/03 08:41:36;;;;;;;29.17;19.30;;;8.90;60.90;;;;;;5042806;22;20053;-65
2021/04/03 08:44:23;;;;;;;28.88;18.90;;;8.80;61.20;;;;;;5062116;22;20060;-76
2021/04/03 08:46:51;;;;;;;36.63;20.92;;;8.80;61.00;;;;;;5054756;28;20079;-72
2021/04/03 08:49:25;;;;;;;32.67;19.08;;;8.80;61.50;;;;;;5053002;28;20136;-71
2021/04/03 08:51:52;;;;;;;32.10;18.52;;;8.90;60.60;;;;;;5053139;28;20080;-67
2021/04/03 08:54:18;;;;;;;31.13;18.77;;;9.10;59.80;;;;;;5041723;22;20147;-65
2021/04/03 08:56:45;;;;;;;32.90;19.52;;;9.00;59.70;;;;;;5061846;22;20457;-64
2021/04/03 08:59:21;;;;;;;30.33;17.85;;;8.90;60.60;;;;;;5042323;22;20112;-68
2021/04/03 09:01:50;;;;;;;25.50;17.75;;;9.00;60.20;;;;;;5033347;28;20044;-66
2021/04/03 09:04:18;;;;;;;25.73;18.95;;;9.10;59.30;;;;;;5062336;23;20080;-76
2021/04/03 09:06:55;;;;;;;25.70;17.83;;;9.10;59.60;;;;;;5052622;28;20045;-64
2021/04/03 09:09:28;;;;;;;34.10;19.02;;;9.10;59.70;;;;;;5042491;22;20529;-63
2021/04/03 09:12:03;;;;;;;25.27;17.77;;;9.40;58.90;;;;;;5062433;22;20147;-63
2021/04/03 09:14:37;;;;;;;31.38;17.85;;;9.50;58.80;;;;;;5042331;22;20122;-63
2021/04/03 09:17:05;;;;;;;24.77;17.23;;;9.50;58.20;;;;;;5062253;22;20053;-63
2021/04/03 09:19:35;;;;;;;32.55;18.15;;;9.50;57.70;;;;;;5063881;22;20486;-63
2021/04/03 09:22:02;;;;;;;31.05;18.65;;;9.60;57.70;;;;;;5064367;22;20069;-63
2021/04/03 09:24:32;;;;;;;24.20;17.33;;;9.70;57.60;;;;;;5063447;22;20536;-64
2021/04/03 09:27:16;;;;;;;21.17;16.45;;;9.80;57.20;;;;;;5067919;22;20055;-63
2021/04/03 09:29:45;;;;;;;25.25;16.52;;;9.70;57.20;;;;;;5068783;22;20056;-63
2021/04/03 09:32:12;;;;;;;25.95;17.60;;;9.90;57.50;;;;;;5064753;22;20053;-64
2021/04/03 09:39:50;;;;;;;26.48;17.55;;;10.30;55.40;;;;;;5066004;22;20053;-64
2021/04/03 09:44:44;;;;;;;25.70;16.50;;;10.30;55.30;;;;;;5067041;22;20053;-63
2021/04/03 09:47:11;;;;;;;18.52;15.85;;;10.50;55.20;;;;;;5066765;22;20048;-63
2021/04/03 09:49:39;;;;;;;22.25;15.82;;;10.70;54.50;;;;;;5069045;22;20052;-64
2021/04/03 09:52:06;;;;;;;21.60;16.73;;;10.60;54.70;;;;;;5068188;22;20055;-63
2021/04/03 09:54:32;;;;;;;21.77;16.27;;;10.50;54.90;;;;;;5068349;22;20057;-63
2021/04/03 09:57:01;;;;;;;32.47;17.02;;;10.40;54.20;;;;;;5068389;22;20049;-63
2021/04/03 09:59:25;;;;;;;26.40;16.58;;;10.50;54.10;;;;;;5066649;22;20053;-64
2021/04/03 10:01:51;;;;;;;24.40;16.08;;;10.50;54.50;;;;;;5069202;22;20515;-64
2021/04/03 10:06:42;;;;;;;19.90;15.23;;;10.80;54.30;;;;;;5066389;22;20121;-65
2021/04/03 10:09:08;;;;;;;24.60;14.43;;;11.00;53.90;;;;;;5067366;22;20087;-64
2021/04/03 10:11:34;;;;;;;36.53;20.50;;;11.10;53.00;;;;;;5064717;22;20075;-65
2021/04/03 10:14:01;;;;;;;20.55;16.58;;;11.20;53.00;;;;;;5044896;22;20061;-64
2021/04/03 10:16:27;;;;;;;20.20;15.68;;;11.20;52.80;;;;;;5065006;22;20584;-64
2021/04/03 10:18:53;;;;;;;23.98;15.77;;;11.30;52.70;;;;;;5044555;22;20049;-64
2021/04/03 10:21:19;;;;;;;22.33;15.80;;;11.30;52.40;;;;;;5085742;22;20052;-64
2021/04/03 10:23:45;;;;;;;20.00;14.45;;;11.30;52.60;;;;;;5067951;22;20060;-64
2021/04/03 10:26:11;;;;;;;17.75;14.70;;;11.50;51.40;;;;;;5067338;22;20420;-65
2021/04/03 10:28:37;;;;;;;17.30;13.68;;;11.50;50.80;;;;;;5063556;22;20049;-63
2021/04/03 10:31:03;;;;;;;23.95;15.68;;;11.40;51.30;;;;;;5063165;22;20056;-64
2021/04/03 10:33:29;;;;;;;21.15;16.45;;;11.40;51.50;;;;;;5061741;22;20049;-65
2021/04/03 10:35:55;;;;;;;46.20;21.10;;;11.60;51.00;;;;;;5046983;22;20175;-65
2021/04/03 10:38:21;;;;;;;22.23;14.45;;;11.70;50.20;;;;;;5063298;23;20110;-65
2021/04/03 10:40:47;;;;;;;22.27;14.98;;;11.60;50.40;;;;;;5100665;22;20063;-65
2021/04/03 10:50:31;;;;;;;21.65;14.75;;;12.20;49.10;;;;;;5064760;22;20053;-63
2021/04/03 10:52:56;;;;;;;22.38;16.52;;;12.20;49.40;;;;;;5063508;22;20152;-63
2021/04/03 10:55:24;;;;;;;24.77;16.17;;;12.20;49.20;;;;;;5042417;23;20111;-65
2021/04/03 10:57:50;;;;;;;20.70;14.98;;;12.20;49.00;;;;;;5063183;22;20187;-65
2021/04/03 11:00:16;;;;;;;18.23;14.48;;;12.30;49.10;;;;;;5053520;28;20033;-62
2021/04/03 11:02:42;;;;;;;21.73;13.60;;;12.40;49.20;;;;;;5042483;22;20064;-63
2021/04/03 11:05:09;;;;;;;18.65;13.48;;;12.50;48.50;;;;;;5083817;22;20053;-67
2021/04/03 11:10:01;;;;;;;20.55;13.75;;;12.70;48.60;;;;;;5063497;22;20053;-66
2021/04/03 11:12:27;;;;;;;20.25;14.30;;;12.80;48.40;;;;;;5066440;22;20481;-66
2021/04/03 11:14:52;;;;;;;34.05;18.05;;;13.10;48.30;;;;;;5066986;22;20064;-62
2021/04/03 11:17:18;;;;;;;24.45;15.35;;;13.00;48.60;;;;;;5062808;22;20110;-64
2021/04/03 11:19:44;;;;;;;19.88;13.70;;;13.00;48.30;;;;;;5043098;22;20072;-65
2021/04/03 11:22:10;;;;;;;15.63;12.82;;;12.90;48.60;;;;;;5084194;22;20401;-64
2021/04/03 11:24:36;;;;;;;16.13;13.13;;;13.00;48.70;;;;;;5066325;22;20147;-64
2021/04/03 11:27:02;;;;;;;22.15;15.23;;;13.00;48.20;;;;;;5065867;22;20168;-64
2021/04/03 11:29:28;;;;;;;21.40;12.40;;;13.30;48.10;;;;;;5066219;22;20448;-64
2021/04/03 11:34:20;;;;;;;17.40;12.32;;;13.60;46.80;;;;;;5063899;22;20049;-65
2021/04/03 11:36:46;;;;;;;21.33;13.65;;;13.70;46.20;;;;;;5065828;22;20048;-63
2021/04/03 11:39:12;;;;;;;19.25;12.63;;;13.80;45.90;;;;;;5065674;22;20063;-64
2021/04/03 11:41:37;;;;;;;20.52;11.98;;;14.00;45.40;;;;;;5065440;22;20059;-63
2021/04/03 11:44:04;;;;;;;15.35;12.00;;;14.10;44.40;;;;;;5063795;22;20060;-63
2021/04/03 11:46:29;;;;;;;23.88;12.77;;;13.80;44.80;;;;;;5063572;22;20059;-65
2021/04/03 11:48:55;;;;;;;17.02;12.63;;;14.00;45.20;;;;;;5064831;22;20090;-68
2021/04/03 11:51:21;;;;;;;27.80;13.57;;;13.90;45.20;;;;;;5055999;28;20101;-67
2021/04/03 11:53:49;;;;;;;17.25;12.07;;;13.90;45.50;;;;;;5065599;22;20048;-70
2021/04/03 11:56:16;;;;;;;20.23;12.10;;;13.90;45.10;;;;;;5065725;22;20060;-70
2021/04/03 11:58:42;;;;;;;19.52;13.25;;;14.00;45.50;;;;;;5056445;28;20040;-71
2021/04/03 12:01:08;;;;;;;19.10;10.82;;;13.90;45.90;;;;;;5074539;28;20496;-72
2021/04/03 12:03:34;;;;;;;21.15;11.98;;;14.10;45.00;;;;;;5073820;28;20040;-70
2021/04/03 12:06:00;;;;;;;17.95;12.18;;;14.10;45.20;;;;;;5073913;28;20041;-72
2021/04/03 12:08:25;;;;;;;16.80;11.18;;;14.20;44.10;;;;;;5056412;28;20039;-71
2021/04/03 12:10:51;;;;;;;16.58;10.25;;;14.00;44.60;;;;;;5073526;28;20036;-73
2021/04/03 12:13:17;;;;;;;19.02;10.65;;;14.10;44.30;;;;;;5055859;28;20128;-72
2021/04/03 12:15:43;;;;;;;18.85;11.88;;;14.20;44.40;;;;;;5073441;28;20492;-71
2021/04/03 12:18:09;;;;;;;20.80;12.88;;;14.20;44.40;;;;;;5073471;28;20456;-71
2021/04/03 12:20:35;;;;;;;20.70;12.00;;;14.30;44.60;;;;;;5074149;28;20041;-73
2021/04/03 12:23:02;;;;;;;18.90;10.82;;;14.30;44.30;;;;;;5056155;28;20036;-70
2021/04/03 12:25:28;;;;;;;21.35;9.95;;;14.40;43.90;;;;;;5064896;22;20082;-74
2021/04/03 12:27:55;;;;;;;27.60;16.08;;;14.50;43.70;;;;;;5074278;28;20057;-71
2021/04/03 12:30:22;;;;;;;16.55;10.82;;;14.70;43.60;;;;;;5074251;28;20111;-73
2021/04/03 12:32:48;;;;;;;13.15;9.52;;;14.60;43.80;;;;;;5056313;28;20149;-71
2021/04/03 12:35:14;;;;;;;14.52;9.07;;;14.80;43.60;;;;;;5074057;28;20524;-73
2021/04/03 12:37:40;;;;;;;15.60;8.40;;;14.90;43.10;;;;;;5056280;28;20477;-72
2021/04/03 12:40:07;;;;;;;17.25;8.65;;;15.10;42.90;;;;;;5074262;28;20036;-72
2021/04/03 12:42:33;;;;;;;12.73;8.27;;;15.30;42.10;;;;;;5073577;28;20040;-71
2021/04/03 12:45:00;;;;;;;12.15;8.40;;;15.40;41.90;;;;;;5073562;28;20515;-71
2021/04/03 12:47:26;;;;;;;12.45;9.10;;;15.30;41.30;;;;;;5073764;28;20177;-71
2021/04/03 12:49:52;;;;;;;12.02;8.35;;;15.10;42.10;;;;;;5074303;28;20082;-72
2021/04/03 12:52:18;;;;;;;9.05;7.60;;;14.90;43.30;;;;;;5073559;28;20040;-71
2021/04/03 12:54:44;;;;;;;16.48;8.13;;;15.20;42.70;;;;;;5072762;28;20566;-72
2021/04/03 12:57:10;;;;;;;11.35;7.65;;;15.20;41.30;;;;;;5072049;28;20067;-72
2021/04/03 12:59:36;;;;;;;12.95;7.03;;;15.30;41.90;;;;;;5054373;28;20061;-72
2021/04/03 13:02:02;;;;;;;13.43;6.93;;;15.30;40.70;;;;;;5072428;28;20040;-72
2021/04/03 13:04:28;;;;;;;14.25;7.47;;;15.20;40.50;;;;;;5073265;28;20031;-72